createdAt,value
2022-08-17T00:02:01.944Z,27.06
2022-08-17T00:04:12.580Z,27.31
2022-08-17T00:06:18.463Z,27.41
2022-08-17T00:08:24.316Z,27.41
2022-08-17T00:10:26.477Z,27.17
2022-08-17T00:12:43.317Z,27.33
2022-08-17T00:14:45.931Z,26.89
2022-08-17T00:16:57.045Z,27.89
2022-08-17T00:19:08.370Z,27.71
2022-08-17T00:21:11.721Z,27.73
2022-08-17T00:23:16.929Z,27.95
2022-08-17T00:25:20.031Z,27.83
2022-08-17T00:27:21.640Z,28.01
2022-08-17T00:29:23.299Z,27.92
2022-08-17T00:31:25.245Z,28.13
2022-08-17T00:33:30.066Z,27.89
2022-08-17T00:35:31.960Z,27.21
2022-08-17T00:37:33.621Z,26.83
2022-08-17T00:39:35.242Z,26.94
2022-08-17T00:41:37.701Z,27.13
2022-08-17T00:43:54.171Z,26.91
2022-08-17T00:45:55.999Z,26.29
2022-08-17T00:47:57.638Z,25.86
2022-08-17T00:49:59.365Z,25.83
2022-08-17T00:52:11.702Z,25.65
2022-08-17T00:54:15.895Z,25.37
2022-08-17T00:56:22.832Z,25.57
2022-08-17T00:58:35.837Z,25.57
2022-08-17T01:00:44.276Z,25.44
2022-08-17T01:02:48.113Z,24.73
2022-08-17T01:04:52.788Z,24.81
2022-08-17T01:06:55.145Z,24.87
2022-08-17T01:08:59.528Z,24.40
2022-08-17T01:11:02.319Z,24.98
2022-08-17T01:13:04.580Z,25.07
2022-08-17T01:15:06.658Z,25.30
2022-08-17T01:17:09.204Z,24.91
2022-08-17T01:19:17.238Z,24.51
2022-08-17T01:21:55.742Z,24.77
2022-08-17T01:23:57.617Z,23.97
2022-08-17T01:26:01.918Z,24.46
2022-08-17T01:28:04.117Z,24.10
2022-08-17T01:30:58.878Z,24.04
2022-08-17T01:32:31.514Z,24.37
2022-08-17T01:34:42.395Z,24.63
2022-08-17T01:36:47.912Z,24.02
2022-08-17T01:38:49.564Z,24.36
2022-08-17T01:40:57.513Z,24.16
2022-08-17T01:43:07.360Z,24.00
2022-08-17T01:45:14.072Z,23.85
2022-08-17T01:47:15.709Z,24.04
2022-08-17T01:49:17.379Z,24.05
2022-08-17T01:51:19.972Z,24.57
2022-08-17T01:53:36.811Z,24.46
2022-08-17T01:55:47.602Z,24.57
2022-08-17T01:57:49.185Z,24.61
2022-08-17T01:59:50.826Z,24.44
2022-08-17T02:01:53.073Z,24.07
2022-08-17T02:04:00.431Z,24.66
2022-08-17T02:06:05.365Z,24.99
2022-08-17T02:08:19.789Z,25.53
2022-08-17T02:10:21.944Z,26.06
2022-08-17T02:12:39.430Z,25.89
2022-08-17T02:14:41.504Z,25.88
2022-08-17T02:16:43.209Z,26.25
2022-08-17T02:18:46.479Z,26.38
2022-08-17T02:20:48.120Z,26.29
2022-08-17T02:22:50.195Z,26.69
2022-08-17T02:24:58.279Z,26.81
2022-08-17T02:27:03.815Z,26.63
2022-08-17T02:29:05.488Z,27.16
2022-08-17T02:31:10.426Z,26.90
2022-08-17T02:33:12.237Z,26.76
2022-08-17T02:35:14.535Z,26.22
2022-08-17T02:37:21.005Z,26.31
2022-08-17T02:39:22.631Z,26.75
2022-08-17T02:41:24.275Z,26.23
2022-08-17T02:43:27.571Z,26.50
2022-08-17T02:45:29.166Z,26.50
2022-08-17T02:47:31.292Z,26.82
2022-08-17T02:49:32.958Z,23.99
2022-08-17T02:51:35.317Z,24.05
2022-08-17T02:53:36.939Z,25.64
2022-08-17T02:55:41.060Z,26.56
2022-08-17T02:57:43.068Z,23.32
2022-08-17T02:59:48.961Z,23.96
2022-08-17T03:01:51.025Z,24.99
2022-08-17T03:03:52.848Z,24.82
2022-08-17T03:05:54.481Z,25.47
2022-08-17T03:07:57.027Z,25.84
2022-08-17T03:09:59.356Z,25.39
2022-08-17T03:12:06.779Z,25.85
2022-08-17T03:14:08.576Z,26.29
2022-08-17T03:16:10.245Z,26.57
2022-08-17T03:18:19.367Z,26.11
2022-08-17T03:20:30.733Z,26.52
2022-08-17T03:22:40.780Z,26.91
2022-08-17T03:24:42.372Z,27.01
2022-08-17T03:26:44.036Z,27.26
2022-08-17T03:28:45.675Z,26.63
2022-08-17T03:30:47.340Z,27.16
2022-08-17T03:32:51.569Z,27.14
2022-08-17T03:34:59.219Z,26.80
2022-08-17T03:37:00.802Z,26.74
2022-08-17T03:39:02.449Z,27.18
2022-08-17T03:41:06.147Z,27.23
2022-08-17T03:43:09.204Z,27.21
2022-08-17T03:45:15.600Z,25.58
2022-08-17T03:47:35.874Z,23.80
2022-08-17T03:50:03.283Z,23.54
2022-08-17T03:52:23.334Z,24.00
2022-08-17T03:54:43.698Z,23.74
2022-08-17T03:56:50.075Z,23.49
2022-08-17T03:58:51.689Z,23.66
2022-08-17T04:00:54.788Z,24.37
2022-08-17T04:02:57.351Z,24.77
2022-08-17T04:04:59.737Z,25.59
2022-08-17T04:07:01.433Z,26.02
2022-08-17T04:09:03.146Z,25.93
2022-08-17T04:11:04.865Z,26.19
2022-08-17T04:13:06.537Z,26.48
2022-08-17T04:15:08.884Z,25.79
2022-08-17T04:17:10.537Z,24.28
2022-08-17T04:19:12.272Z,23.62
2022-08-17T04:21:13.868Z,23.56
2022-08-17T04:23:18.332Z,24.74
2022-08-17T04:25:20.241Z,24.72
2022-08-17T04:27:21.814Z,24.91
2022-08-17T04:29:23.665Z,24.93
2022-08-17T04:31:26.488Z,23.83
2022-08-17T04:33:29.907Z,23.90
2022-08-17T04:35:34.626Z,25.53
2022-08-17T04:37:36.206Z,25.51
2022-08-17T04:39:37.808Z,24.27
2022-08-17T04:41:57.724Z,24.39
2022-08-17T04:43:59.671Z,23.10
2022-08-17T04:46:05.327Z,23.31
2022-08-17T04:48:07.113Z,24.58
2022-08-17T04:50:09.196Z,24.12
2022-08-17T04:52:11.260Z,25.44
2022-08-17T04:54:32.885Z,24.63
2022-08-17T04:56:35.283Z,25.78
2022-08-17T04:58:37.010Z,24.93
2022-08-17T05:00:39.231Z,25.35
2022-08-17T05:02:50.501Z,26.09
2022-08-17T05:04:52.472Z,24.92
2022-08-17T05:06:56.986Z,24.43
2022-08-17T05:08:59.884Z,24.26
2022-08-17T05:11:01.596Z,24.27
2022-08-17T05:13:08.341Z,23.35
2022-08-17T05:15:16.179Z,23.80
2022-08-17T05:17:17.752Z,24.10
2022-08-17T05:19:19.381Z,24.58
2022-08-17T05:21:22.960Z,25.02
2022-08-17T05:23:26.397Z,25.55
2022-08-17T05:25:34.474Z,24.36
2022-08-17T05:27:38.957Z,24.86
2022-08-17T05:29:42.947Z,25.32
2022-08-17T05:31:44.594Z,25.73
2022-08-17T05:33:46.458Z,25.15
2022-08-17T05:35:50.828Z,25.40
2022-08-17T05:37:53.515Z,26.27
2022-08-17T05:39:58.322Z,26.66
2022-08-17T05:42:02.643Z,26.23
2022-08-17T05:44:05.321Z,26.36
2022-08-17T05:46:25.291Z,27.13
2022-08-17T05:48:39.776Z,27.43
2022-08-17T05:51:03.658Z,27.58
2022-08-17T05:53:48.452Z,26.93
2022-08-17T05:56:30.207Z,27.19
2022-08-17T05:58:47.363Z,26.38
2022-08-17T06:01:00.612Z,27.03
2022-08-17T06:03:14.496Z,27.24
2022-08-17T06:05:54.207Z,27.50
2022-08-17T06:08:09.976Z,27.11
2022-08-17T06:10:23.047Z,25.83
2022-08-17T06:12:30.543Z,26.30
2022-08-17T06:14:36.478Z,24.68
2022-08-17T06:16:44.985Z,25.74
2022-08-17T06:19:30.757Z,26.01
2022-08-17T06:21:39.493Z,24.75
2022-08-17T06:23:49.005Z,24.72
2022-08-17T06:25:55.511Z,23.81
2022-08-17T06:28:14.708Z,24.01
2022-08-17T06:30:26.810Z,23.93
2022-08-17T06:32:29.266Z,25.69
2022-08-17T06:34:32.283Z,24.60
2022-08-17T06:37:03.849Z,24.76
2022-08-17T06:39:27.941Z,25.86
2022-08-17T06:41:38.454Z,24.75
2022-08-17T06:44:07.867Z,26.36
2022-08-17T06:46:41.443Z,26.36
2022-08-17T06:48:52.435Z,26.51
2022-08-17T06:51:17.099Z,27.10
2022-08-17T06:53:31.707Z,26.91
2022-08-17T06:55:46.559Z,27.07
2022-08-17T06:57:53.618Z,27.34
2022-08-17T07:00:07.992Z,27.05
2022-08-17T07:02:18.948Z,27.24
2022-08-17T07:04:34.354Z,27.08
2022-08-17T07:07:01.799Z,27.31
2022-08-17T07:09:14.062Z,26.65
2022-08-17T07:11:42.055Z,26.18
2022-08-17T07:13:58.005Z,27.16
2022-08-17T07:16:52.237Z,26.79
2022-08-17T07:18:56.244Z,27.36
2022-08-17T07:21:07.452Z,27.60
2022-08-17T07:23:44.336Z,27.73
2022-08-17T07:25:45.935Z,25.70
2022-08-17T07:27:51.642Z,25.74
2022-08-17T07:30:00.693Z,25.92
2022-08-17T07:32:02.912Z,26.37
2022-08-17T07:34:14.589Z,26.46
2022-08-17T07:36:34.548Z,27.38
2022-08-17T07:38:55.782Z,27.42
2022-08-17T07:41:06.280Z,27.25
2022-08-17T07:43:18.781Z,26.87
2022-08-17T07:45:44.012Z,27.11
2022-08-17T07:48:10.125Z,26.74
2022-08-17T07:50:29.355Z,26.66
2022-08-17T07:52:51.714Z,26.97
2022-08-17T07:54:54.615Z,26.92
2022-08-17T07:57:00.377Z,27.11
2022-08-17T07:59:23.110Z,27.24
2022-08-17T08:01:25.615Z,27.18
2022-08-17T08:03:46.192Z,27.44
2022-08-17T08:06:01.974Z,25.57
2022-08-17T08:08:18.509Z,26.81
2022-08-17T08:10:31.505Z,27.08
2022-08-17T08:12:42.868Z,27.15
2022-08-17T08:14:55.409Z,27.18
2022-08-17T08:17:00.466Z,27.32
2022-08-17T08:19:02.895Z,27.92
2022-08-17T08:21:12.668Z,27.50
2022-08-17T08:23:34.075Z,27.79
2022-08-17T08:25:53.241Z,27.17
2022-08-17T08:28:24.846Z,26.57
2022-08-17T08:30:28.283Z,26.32
2022-08-17T08:32:50.323Z,27.66
2022-08-17T08:35:31.066Z,27.14
2022-08-17T08:37:47.069Z,27.94
2022-08-17T08:40:02.664Z,27.75
2022-08-17T08:42:11.049Z,28.08
2022-08-17T08:45:00.973Z,27.72
2022-08-17T08:47:15.125Z,27.29
2022-08-17T08:50:02.645Z,26.98
2022-08-17T08:52:04.670Z,26.97
2022-08-17T08:54:44.376Z,27.51
2022-08-17T08:59:42.058Z,26.21
2022-08-17T09:02:01.085Z,26.62
2022-08-17T09:04:24.834Z,26.94
2022-08-17T09:07:07.736Z,27.49
2022-08-17T09:09:19.989Z,27.05
2022-08-17T09:12:01.823Z,26.96
2022-08-17T09:14:26.759Z,26.53
2022-08-17T09:16:48.531Z,26.29
2022-08-17T09:19:01.132Z,25.67
2022-08-17T09:21:21.580Z,26.11
2022-08-17T09:23:33.584Z,26.13
2022-08-17T09:26:07.817Z,26.77
2022-08-17T09:28:24.206Z,26.54
2022-08-17T09:30:29.966Z,27.04
2022-08-17T09:32:39.120Z,27.02
2022-08-17T09:34:48.524Z,26.27
2022-08-17T09:37:11.729Z,26.80
2022-08-17T09:39:24.437Z,26.83
2022-08-17T09:41:48.939Z,27.48
2022-08-17T09:43:58.660Z,26.90
2022-08-17T09:46:11.603Z,27.51
2022-08-17T09:48:19.254Z,26.83
2022-08-17T09:51:13.635Z,27.77
2022-08-17T09:53:15.589Z,27.70
2022-08-17T09:55:17.304Z,27.93
2022-08-17T09:57:37.389Z,27.67
2022-08-17T09:59:38.917Z,27.38
2022-08-17T10:02:01.203Z,26.98
2022-08-17T10:04:08.649Z,27.58
2022-08-17T10:06:21.747Z,27.18
2022-08-17T10:08:55.688Z,27.80
2022-08-17T10:11:11.630Z,26.62
2022-08-17T10:13:31.427Z,26.66
2022-08-17T10:15:46.877Z,26.24
2022-08-17T10:17:57.434Z,26.89
2022-08-17T10:20:06.976Z,25.99
2022-08-17T10:22:53.211Z,26.36
2022-08-17T10:25:49.066Z,25.13
2022-08-17T10:27:59.858Z,24.53
2022-08-17T10:30:05.083Z,25.18
2022-08-17T10:32:10.800Z,24.00
2022-08-17T10:34:46.205Z,24.42
2022-08-17T10:37:00.655Z,23.73
2022-08-17T10:39:34.323Z,25.40
2022-08-17T10:41:57.647Z,25.43
2022-08-17T10:44:37.094Z,24.34
2022-08-17T10:47:07.652Z,24.33
2022-08-17T10:49:18.337Z,25.49
2022-08-17T10:51:38.478Z,24.09
2022-08-17T10:53:49.640Z,24.22
2022-08-17T10:56:13.240Z,24.63
2022-08-17T10:58:22.119Z,25.60
2022-08-17T11:03:26.470Z,24.99
2022-08-17T11:06:06.554Z,25.02
2022-08-17T11:08:23.387Z,24.78
2022-08-17T11:10:52.762Z,25.80
2022-08-17T11:13:01.325Z,26.02
2022-08-17T11:15:32.100Z,25.68
2022-08-17T11:17:58.225Z,27.04
2022-08-17T11:20:30.379Z,27.08
2022-08-17T11:22:57.873Z,26.26
2022-08-17T11:25:17.348Z,26.64
2022-08-17T11:27:33.796Z,25.98
2022-08-17T11:29:51.985Z,25.70
2022-08-17T11:32:15.096Z,25.58
2022-08-17T11:34:23.138Z,27.22
2022-08-17T11:36:39.275Z,26.82
2022-08-17T11:38:58.787Z,27.00
2022-08-17T11:41:29.357Z,27.77
2022-08-17T11:44:03.972Z,29.07
2022-08-17T11:46:18.814Z,29.14
2022-08-17T11:49:13.872Z,28.78
2022-08-17T11:51:33.857Z,29.45
2022-08-17T11:53:38.347Z,30.16
2022-08-17T11:55:44.754Z,29.21
2022-08-17T11:58:03.638Z,29.57
2022-08-17T12:00:28.986Z,29.59
2022-08-17T12:02:38.869Z,29.58
2022-08-17T12:05:22.953Z,29.47
2022-08-17T12:07:25.054Z,29.94
2022-08-17T12:09:33.378Z,29.43
2022-08-17T12:11:55.507Z,28.35
2022-08-17T12:14:07.197Z,28.25
2022-08-17T12:16:13.505Z,28.86
2022-08-17T12:18:29.518Z,29.70
2022-08-17T12:20:40.736Z,29.87
2022-08-17T12:22:57.724Z,29.47
2022-08-17T12:25:01.926Z,29.85
2022-08-17T12:27:07.162Z,29.44
2022-08-17T12:29:38.916Z,30.00
2022-08-17T12:31:44.587Z,29.93
2022-08-17T12:33:48.290Z,29.23
2022-08-17T12:35:59.404Z,30.22
2022-08-17T12:38:03.099Z,30.68
2022-08-17T12:40:22.605Z,30.48
2022-08-17T12:42:37.503Z,30.69
2022-08-17T12:44:50.522Z,30.65
2022-08-17T12:46:54.882Z,30.38
2022-08-17T12:49:11.934Z,30.37
2022-08-17T12:51:13.629Z,30.15
2022-08-17T12:53:27.287Z,30.94
2022-08-17T12:55:33.803Z,29.87
2022-08-17T12:57:38.663Z,30.07
2022-08-17T12:59:44.086Z,30.56
2022-08-17T13:01:47.129Z,28.86
2022-08-17T13:03:52.444Z,30.68
2022-08-17T13:06:09.557Z,30.29
2022-08-17T13:08:27.909Z,30.54
2022-08-17T13:10:34.557Z,30.63
2022-08-17T13:12:36.271Z,29.74
2022-08-17T13:14:37.929Z,29.06
2022-08-17T13:16:39.833Z,30.34
2022-08-17T13:19:02.991Z,30.54
2022-08-17T13:21:06.349Z,30.49
2022-08-17T13:23:19.641Z,29.53
2022-08-17T13:25:21.562Z,29.36
2022-08-17T13:27:26.346Z,29.04
2022-08-17T13:29:53.109Z,29.10
2022-08-17T13:32:05.156Z,27.75
2022-08-17T13:34:26.720Z,28.69
2022-08-17T13:36:33.592Z,29.18
2022-08-17T13:38:51.012Z,29.20
2022-08-17T13:40:53.489Z,29.81
2022-08-17T13:42:56.439Z,30.75
2022-08-17T13:44:59.612Z,29.53
2022-08-17T13:47:02.534Z,30.02
2022-08-17T13:49:09.926Z,30.35
2022-08-17T13:51:16.928Z,30.98
2022-08-17T13:53:23.060Z,30.85
2022-08-17T13:55:26.700Z,31.51
2022-08-17T13:57:28.697Z,30.63
2022-08-17T13:59:54.830Z,29.81
2022-08-17T14:01:57.387Z,28.93
2022-08-17T14:04:01.614Z,28.55
2022-08-17T14:06:05.613Z,29.10
2022-08-17T14:08:07.360Z,29.69
2022-08-17T14:10:17.952Z,30.10
2022-08-17T14:12:25.040Z,30.81
2022-08-17T14:14:26.907Z,31.04
2022-08-17T14:16:28.525Z,29.44
2022-08-17T14:18:55.224Z,30.02
2022-08-17T14:20:53.329Z,30.73
2022-08-17T14:22:55.912Z,29.24
2022-08-17T14:24:59.388Z,29.97
2022-08-17T14:27:02.181Z,31.18
2022-08-17T14:29:04.310Z,31.49
2022-08-17T14:31:16.760Z,30.99
2022-08-17T14:33:22.555Z,31.27
2022-08-17T14:35:24.744Z,31.03
2022-08-17T14:37:28.372Z,31.36
2022-08-17T14:39:30.030Z,32.47
2022-08-17T14:41:31.823Z,32.32
2022-08-17T14:43:35.353Z,31.54
2022-08-17T14:45:36.961Z,31.56
2022-08-17T14:47:40.395Z,31.77
2022-08-17T14:49:42.365Z,32.02
2022-08-17T14:51:44.693Z,31.70
2022-08-17T14:53:47.033Z,31.18
2022-08-17T14:55:51.241Z,31.74
2022-08-17T14:57:53.158Z,32.02
2022-08-17T14:59:55.621Z,30.71
2022-08-17T15:01:58.199Z,29.31
2022-08-17T15:04:00.959Z,29.60
2022-08-17T15:06:02.886Z,31.58
2022-08-17T15:08:05.674Z,30.79
2022-08-17T15:10:08.981Z,31.24
2022-08-17T15:12:16.983Z,29.91
2022-08-17T15:14:18.611Z,29.99
2022-08-17T15:16:20.565Z,30.15
2022-08-17T15:18:22.377Z,29.25
2022-08-17T15:20:28.013Z,30.78
2022-08-17T15:22:29.811Z,31.00
2022-08-17T15:24:31.413Z,29.13
2022-08-17T15:26:33.060Z,30.38
2022-08-17T15:28:34.692Z,31.34
2022-08-17T15:30:36.342Z,31.56
2022-08-17T15:32:41.318Z,31.82
2022-08-17T15:35:00.457Z,31.91
2022-08-17T15:37:02.568Z,31.23
2022-08-17T15:39:04.439Z,31.81
2022-08-17T15:41:09.858Z,31.52
2022-08-17T15:43:20.061Z,32.10
2022-08-17T15:45:26.647Z,32.12
2022-08-17T15:47:28.257Z,31.30
2022-08-17T15:49:29.829Z,32.10
2022-08-17T15:51:34.350Z,32.29
2022-08-17T15:53:36.956Z,32.59
2022-08-17T15:55:39.687Z,31.51
2022-08-17T15:57:41.366Z,31.07
2022-08-17T15:59:44.772Z,31.23
2022-08-17T16:03:16.133Z,30.11
2022-08-17T16:04:26.510Z,31.85
2022-08-17T16:06:31.939Z,32.05
2022-08-17T16:08:35.282Z,31.62
2022-08-17T16:10:37.178Z,31.51
2022-08-17T16:12:38.997Z,31.81
2022-08-17T16:14:40.643Z,31.02
2022-08-17T16:16:42.295Z,32.12
2022-08-17T16:18:43.913Z,31.50
2022-08-17T16:20:45.579Z,32.43
2022-08-17T16:22:47.450Z,32.13
2022-08-17T16:24:57.167Z,30.74
2022-08-17T16:26:59.729Z,31.40
2022-08-17T16:29:04.670Z,31.79
2022-08-17T16:31:08.139Z,31.27
2022-08-17T16:33:12.563Z,31.40
2022-08-17T16:35:18.482Z,31.50
2022-08-17T16:37:20.302Z,31.83
2022-08-17T16:39:22.246Z,31.46
2022-08-17T16:41:42.460Z,31.67
2022-08-17T16:43:45.656Z,31.79
2022-08-17T16:45:51.811Z,31.59
2022-08-17T16:47:54.644Z,31.34
2022-08-17T16:49:56.372Z,31.86
2022-08-17T16:52:03.095Z,31.87
2022-08-17T16:54:06.129Z,31.91
2022-08-17T16:56:07.699Z,32.14
2022-08-17T16:58:09.542Z,31.87
2022-08-17T17:00:13.482Z,32.15
2022-08-17T17:02:16.982Z,31.75
2022-08-17T17:04:19.388Z,31.72
2022-08-17T17:06:30.351Z,31.92
2022-08-17T17:08:44.639Z,31.69
2022-08-17T17:10:49.680Z,31.84
2022-08-17T17:13:02.971Z,32.10
2022-08-17T17:15:06.768Z,32.23
2022-08-17T17:17:36.298Z,32.65
2022-08-17T17:19:51.464Z,32.83
2022-08-17T17:21:59.109Z,32.66
2022-08-17T17:24:06.737Z,32.74
2022-08-17T17:26:43.329Z,32.73
2022-08-17T17:28:54.024Z,32.65
2022-08-17T17:31:12.025Z,32.07
2022-08-17T17:33:36.213Z,31.56
2022-08-17T17:35:50.919Z,31.13
2022-08-17T17:37:57.315Z,31.72
2022-08-17T17:40:05.223Z,31.87
2022-08-17T17:42:11.361Z,32.18
2022-08-17T17:44:18.037Z,32.12
2022-08-17T17:46:33.317Z,31.58
2022-08-17T17:48:35.030Z,30.62
2022-08-17T17:50:44.682Z,30.94
2022-08-17T17:53:12.240Z,31.19
2022-08-17T17:55:54.441Z,31.69
2022-08-17T17:58:01.968Z,31.50
2022-08-17T18:00:15.433Z,31.70
2022-08-17T18:02:51.434Z,31.52
2022-08-17T18:05:03.480Z,31.95
2022-08-17T18:07:38.099Z,32.13
2022-08-17T18:09:49.419Z,32.07
2022-08-17T18:12:01.390Z,32.01
2022-08-17T18:14:42.199Z,31.11
2022-08-17T18:16:48.140Z,30.85
2022-08-17T18:18:52.328Z,30.87
2022-08-17T18:21:05.169Z,30.85
2022-08-17T18:23:07.085Z,30.60
2022-08-17T18:25:58.745Z,31.45
2022-08-17T18:28:00.368Z,31.31
2022-08-17T18:30:25.767Z,31.33
2022-08-17T18:32:34.441Z,31.35
2022-08-17T18:34:47.271Z,31.45
2022-08-17T18:36:49.148Z,31.27
2022-08-17T18:38:50.729Z,31.38
2022-08-17T18:41:18.528Z,31.55
2022-08-17T18:43:58.749Z,31.78
2022-08-17T18:46:17.194Z,31.74
2022-08-17T18:48:36.577Z,31.39
2022-08-17T18:50:41.459Z,30.94
2022-08-17T18:52:44.057Z,30.42
2022-08-17T18:55:11.899Z,29.87
2022-08-17T18:57:13.817Z,30.43
2022-08-17T18:59:44.844Z,30.95
2022-08-17T19:02:22.387Z,30.41
2022-08-17T19:04:43.089Z,30.84
2022-08-17T19:06:44.712Z,30.87
2022-08-17T19:08:46.307Z,31.10
2022-08-17T19:10:53.084Z,31.21
2022-08-17T19:13:12.837Z,31.11
2022-08-17T19:15:22.598Z,30.67
2022-08-17T19:17:30.713Z,30.68
2022-08-17T19:20:02.370Z,30.79
2022-08-17T19:22:16.988Z,30.45
2022-08-17T19:24:36.631Z,30.09
2022-08-17T19:27:14.082Z,29.81
2022-08-17T19:29:41.160Z,29.74
2022-08-17T19:31:44.142Z,30.43
2022-08-17T19:33:47.997Z,30.64
2022-08-17T19:35:57.517Z,30.46
2022-08-17T19:38:34.106Z,30.99
2022-08-17T19:40:59.345Z,31.08
2022-08-17T19:43:04.073Z,31.00
2022-08-17T19:45:15.934Z,30.98
2022-08-17T19:48:03.112Z,30.60
2022-08-17T19:50:12.819Z,29.83
2022-08-17T19:52:17.536Z,30.14
2022-08-17T19:54:36.675Z,30.54
2022-08-17T19:56:55.497Z,30.75
2022-08-17T19:59:09.325Z,30.72
2022-08-17T20:01:18.091Z,30.40
2022-08-17T20:03:38.108Z,30.44
2022-08-17T20:06:11.410Z,30.80
2022-08-17T20:08:20.440Z,30.68
2022-08-17T20:10:28.171Z,30.64
2022-08-17T20:12:35.491Z,30.20
2022-08-17T20:15:00.330Z,30.18
2022-08-17T20:17:03.462Z,30.11
2022-08-17T20:19:09.689Z,30.20
2022-08-17T20:21:26.813Z,30.02
2022-08-17T20:24:15.853Z,30.31
2022-08-17T20:26:58.892Z,30.54
2022-08-17T20:29:05.477Z,30.41
2022-08-17T20:31:45.530Z,30.53
2022-08-17T20:33:47.235Z,30.39
2022-08-17T20:36:11.508Z,30.36
2022-08-17T20:38:36.305Z,30.58
2022-08-17T20:41:00.688Z,30.21
2022-08-17T20:43:33.281Z,30.37
2022-08-17T20:45:40.742Z,30.36
2022-08-17T20:48:07.461Z,30.39
2022-08-17T20:50:25.397Z,29.94
2022-08-17T20:52:35.929Z,29.88
2022-08-17T20:54:55.909Z,29.25
2022-08-17T20:57:00.977Z,26.60
2022-08-17T20:59:02.621Z,26.02
2022-08-17T21:01:24.270Z,27.99
2022-08-17T21:03:49.153Z,27.57
2022-08-17T21:05:58.842Z,27.57
2022-08-17T21:08:16.553Z,26.74
2022-08-17T21:10:24.114Z,27.71
2022-08-17T21:13:04.517Z,28.44
2022-08-17T21:15:28.497Z,28.59
2022-08-17T21:17:38.111Z,28.94
2022-08-17T21:20:10.981Z,28.89
2022-08-17T21:22:37.476Z,28.76
2022-08-17T21:24:50.777Z,28.81
2022-08-17T21:27:20.536Z,28.62
2022-08-17T21:29:30.970Z,26.18
2022-08-17T21:31:46.016Z,27.48
2022-08-17T21:34:22.990Z,27.47
2022-08-17T21:36:25.981Z,27.53
2022-08-17T21:38:37.132Z,27.87
2022-08-17T21:40:45.243Z,27.65
2022-08-17T21:42:55.160Z,28.55
2022-08-17T21:45:01.392Z,28.46
2022-08-17T21:47:24.737Z,28.29
2022-08-17T21:49:28.659Z,28.22
2022-08-17T21:51:32.517Z,28.21
2022-08-17T21:53:48.195Z,28.40
2022-08-17T21:55:52.294Z,28.12
2022-08-17T21:58:13.819Z,27.97
2022-08-17T22:00:25.797Z,26.91
2022-08-17T22:02:34.004Z,27.32
2022-08-17T22:04:38.886Z,27.80
2022-08-17T22:06:56.889Z,27.45
2022-08-17T22:09:30.104Z,27.44
2022-08-17T22:11:51.329Z,28.07
2022-08-17T22:14:05.300Z,26.55
2022-08-17T22:16:28.455Z,26.53
2022-08-17T22:18:31.193Z,26.60
2022-08-17T22:20:33.418Z,25.26
2022-08-17T22:23:04.077Z,24.96
2022-08-17T22:25:19.643Z,26.33
2022-08-17T22:27:21.724Z,24.69
2022-08-17T22:29:56.866Z,24.77
2022-08-17T22:31:59.350Z,24.67
2022-08-17T22:34:04.122Z,24.08
2022-08-17T22:36:29.833Z,25.40
2022-08-17T22:38:32.753Z,23.90
2022-08-17T22:40:34.674Z,24.68
2022-08-17T22:42:48.382Z,24.43
2022-08-17T22:44:51.810Z,24.01
2022-08-17T22:46:59.019Z,24.42
2022-08-17T22:49:00.850Z,24.34
2022-08-17T22:51:13.393Z,25.32
2022-08-17T22:53:38.090Z,25.57
2022-08-17T22:56:08.856Z,25.54
2022-08-17T22:58:34.977Z,24.78
2022-08-17T23:00:42.122Z,24.68
2022-08-17T23:03:10.539Z,24.84
2022-08-17T23:05:16.823Z,24.22
2022-08-17T23:07:20.160Z,25.34
2022-08-17T23:09:22.105Z,25.50
2022-08-17T23:11:49.108Z,25.48
2022-08-17T23:13:54.971Z,25.52
2022-08-17T23:15:56.575Z,25.60
2022-08-17T23:17:59.466Z,25.29
2022-08-17T23:20:01.459Z,24.46
2022-08-17T23:22:08.027Z,24.97
2022-08-17T23:24:09.920Z,25.52
2022-08-17T23:26:11.736Z,25.12
2022-08-17T23:28:13.412Z,25.57
2022-08-17T23:30:15.119Z,25.82
2022-08-17T23:32:18.512Z,24.13
2022-08-17T23:34:20.265Z,24.20
2022-08-17T23:36:22.484Z,23.34
2022-08-17T23:38:26.984Z,24.49
2022-08-17T23:40:29.936Z,24.00
2022-08-17T23:42:32.215Z,23.94
2022-08-17T23:44:35.855Z,23.87
2022-08-17T23:46:37.430Z,25.19
2022-08-17T23:48:41.144Z,24.26
2022-08-17T23:50:42.773Z,23.89
2022-08-17T23:52:46.645Z,25.02
2022-08-17T23:54:49.920Z,24.01
2022-08-17T23:56:51.495Z,25.40
2022-08-17T23:58:55.554Z,24.68
